createdAt,value
2023-03-03T00:01:47.415Z,97099.69
2023-03-03T00:05:48.118Z,97097.44
2023-03-03T00:09:49.412Z,97095.16
2023-03-03T00:13:56.361Z,97094.84
2023-03-03T00:17:58.465Z,97097.50
2023-03-03T00:22:01.734Z,97089.69
2023-03-03T00:26:02.688Z,97095.06
2023-03-03T00:30:20.365Z,97086.78
2023-03-03T00:34:30.813Z,97108.63
2023-03-03T00:38:31.934Z,97109.31
2023-03-03T00:42:33.886Z,97115.16
2023-03-03T00:46:40.977Z,97115.13
2023-03-03T00:50:47.377Z,97119.22
2023-03-03T00:54:50.575Z,97122.28
2023-03-03T00:58:51.090Z,97118.19
2023-03-03T01:02:56.824Z,97115.63
2023-03-03T01:06:57.431Z,97110.09
2023-03-03T01:11:01.958Z,97115.50
2023-03-03T01:15:04.121Z,97110.59
2023-03-03T01:19:09.820Z,97099.19
2023-03-03T01:23:11.044Z,97100.81
2023-03-03T01:27:11.768Z,97110.94
2023-03-03T01:31:15.379Z,97107.69
2023-03-03T01:35:18.940Z,97103.97
2023-03-03T01:39:19.302Z,97101.50
2023-03-03T01:43:19.966Z,97091.59
2023-03-03T01:47:25.393Z,97106.72
2023-03-03T01:51:34.178Z,97098.09
2023-03-03T01:55:42.336Z,97097.59
2023-03-03T01:59:50.507Z,97100.53
2023-03-03T02:03:51.647Z,97095.97
2023-03-03T02:07:56.099Z,97086.53
2023-03-03T02:12:03.049Z,97096.28
2023-03-03T02:16:03.702Z,97087.19
2023-03-03T02:20:14.798Z,97087.81
2023-03-03T02:24:29.208Z,97097.63
2023-03-03T02:28:37.161Z,97091.72
2023-03-03T02:32:40.418Z,97104.25
2023-03-03T02:36:42.693Z,97091.41
2023-03-03T02:40:55.372Z,97094.78
2023-03-03T02:44:58.777Z,97091.03
2023-03-03T02:48:59.376Z,97095.75
2023-03-03T02:52:59.814Z,97098.69
2023-03-03T02:57:00.702Z,97089.75
2023-03-03T03:01:04.069Z,97105.38
2023-03-03T03:05:05.190Z,97098.69
2023-03-03T03:09:06.847Z,97089.72
2023-03-03T03:13:07.663Z,97101.41
2023-03-03T03:17:11.860Z,97093.91
2023-03-03T03:21:14.649Z,97094.84
2023-03-03T03:25:16.777Z,97040.38
2023-03-03T03:29:17.940Z,97101.28
2023-03-03T03:33:21.812Z,97094.78
2023-03-03T03:37:23.337Z,97096.56
2023-03-03T03:41:24.154Z,97108.16
2023-03-03T03:45:28.063Z,97099.03
2023-03-03T03:49:31.528Z,97107.56
2023-03-03T03:53:32.628Z,97104.66
2023-03-03T03:57:33.687Z,97107.00
2023-03-03T04:01:34.280Z,97110.63
2023-03-03T04:05:37.786Z,97104.22
2023-03-03T04:09:39.576Z,97106.78
2023-03-03T04:13:40.732Z,97117.38
2023-03-03T04:17:44.266Z,97110.94
2023-03-03T04:21:48.335Z,97117.91
2023-03-03T04:25:50.450Z,97114.34
2023-03-03T04:29:52.508Z,97115.78
2023-03-03T04:33:57.280Z,97121.63
2023-03-03T04:38:00.913Z,97128.88
2023-03-03T04:42:01.536Z,97126.41
2023-03-03T04:46:03.361Z,97127.56
2023-03-03T04:50:05.036Z,97130.63
2023-03-03T04:54:09.893Z,97123.13
2023-03-03T04:58:12.759Z,97112.47
2023-03-03T05:02:14.835Z,97124.53
2023-03-03T05:06:16.914Z,97129.81
2023-03-03T05:10:21.075Z,97127.53
2023-03-03T05:14:21.706Z,97124.44
2023-03-03T05:18:23.264Z,97115.91
2023-03-03T05:22:23.774Z,97135.41
2023-03-03T05:26:27.369Z,97131.50
2023-03-03T05:30:28.609Z,97142.16
2023-03-03T05:34:29.341Z,97142.34
2023-03-03T05:38:30.079Z,97144.28
2023-03-03T05:42:33.607Z,97144.94
2023-03-03T05:46:35.599Z,97147.38
2023-03-03T05:50:36.643Z,97146.44
2023-03-03T05:54:37.676Z,97151.13
2023-03-03T05:58:42.481Z,97161.91
2023-03-03T06:02:46.290Z,97162.66
2023-03-03T06:06:46.890Z,97162.81
2023-03-03T06:10:47.556Z,97169.09
2023-03-03T06:14:51.905Z,97173.16
2023-03-03T06:18:52.713Z,97176.56
2023-03-03T06:22:53.266Z,97176.38
2023-03-03T06:26:56.340Z,97191.16
2023-03-03T06:31:00.844Z,97191.28
2023-03-03T06:35:01.524Z,97204.72
2023-03-03T06:39:02.384Z,97199.41
2023-03-03T06:43:03.453Z,97195.47
2023-03-03T06:47:06.825Z,97191.53
2023-03-03T06:51:24.700Z,97203.59
2023-03-03T06:55:27.381Z,97209.53
2023-03-03T06:59:30.838Z,97212.03
2023-03-03T07:03:38.301Z,97212.25
2023-03-03T07:07:40.341Z,97221.44
2023-03-03T07:11:42.049Z,97222.13
2023-03-03T07:15:42.647Z,97229.44
2023-03-03T07:19:48.292Z,97223.66
2023-03-03T07:23:51.594Z,97214.22
2023-03-03T07:27:51.974Z,97197.66
2023-03-03T07:31:53.469Z,97227.91
2023-03-03T07:35:59.858Z,97229.38
2023-03-03T07:40:02.132Z,97245.63
2023-03-03T07:44:10.360Z,97242.88
2023-03-03T07:48:28.521Z,97249.72
2023-03-03T07:52:56.988Z,97257.28
2023-03-03T07:57:00.949Z,97268.03
2023-03-03T08:01:42.878Z,97278.72
2023-03-03T08:05:47.184Z,97276.91
2023-03-03T08:09:54.556Z,97284.66
2023-03-03T08:13:58.726Z,97285.59
2023-03-03T08:18:00.148Z,97281.50
2023-03-03T08:22:10.270Z,97284.19
2023-03-03T08:26:15.480Z,97284.47
2023-03-03T08:30:17.265Z,97288.28
2023-03-03T08:34:17.986Z,97283.06
2023-03-03T08:38:22.366Z,97278.63
2023-03-03T08:42:25.386Z,97278.88
2023-03-03T08:46:27.025Z,97275.97
2023-03-03T08:50:28.016Z,97265.63
2023-03-03T08:54:28.596Z,97262.97
2023-03-03T08:58:35.692Z,97260.69
2023-03-03T09:02:38.455Z,97262.31
2023-03-03T09:06:39.511Z,97264.56
2023-03-03T09:10:44.057Z,97269.19
2023-03-03T09:14:47.878Z,97260.91
2023-03-03T09:18:48.349Z,97264.75
2023-03-03T09:22:49.032Z,97273.66
2023-03-03T09:26:53.233Z,97272.63
2023-03-03T09:31:00.219Z,97275.44
2023-03-03T09:35:01.039Z,97274.34
2023-03-03T09:39:03.349Z,97268.22
2023-03-03T09:43:12.619Z,97275.50
2023-03-03T09:47:42.728Z,97281.31
2023-03-03T09:52:03.320Z,97276.53
2023-03-03T09:56:20.936Z,97261.00
2023-03-03T10:00:44.885Z,97280.72
2023-03-03T10:05:19.255Z,97257.59
2023-03-03T10:10:01.962Z,97265.94
2023-03-03T10:14:28.870Z,97264.66
2023-03-03T10:18:42.659Z,97270.09
2023-03-03T10:22:56.912Z,97264.91
2023-03-03T10:27:23.326Z,97267.81
2023-03-03T10:31:38.572Z,97272.56
2023-03-03T10:36:07.381Z,97276.63
2023-03-03T10:40:28.784Z,97278.81
2023-03-03T10:44:58.126Z,97279.88
2023-03-03T10:49:25.227Z,97278.34
2023-03-03T10:53:36.707Z,97277.91
2023-03-03T10:57:52.500Z,97270.28
2023-03-03T11:02:01.174Z,97282.53
2023-03-03T11:06:05.744Z,97281.56
2023-03-03T11:10:30.590Z,97288.75
2023-03-03T11:14:47.779Z,97277.38
2023-03-03T11:19:15.828Z,97276.13
2023-03-03T11:23:47.484Z,97276.00
2023-03-03T11:28:17.483Z,97267.16
2023-03-03T11:32:37.004Z,97263.69
2023-03-03T11:36:45.430Z,97255.09
2023-03-03T11:40:54.229Z,97261.00
2023-03-03T11:45:00.138Z,97233.63
2023-03-03T11:49:13.024Z,97239.41
2023-03-03T11:53:57.292Z,97231.66
2023-03-03T11:58:10.323Z,97228.88
2023-03-03T12:02:33.256Z,97202.47
2023-03-03T12:07:09.766Z,97215.00
2023-03-03T12:11:31.034Z,97211.53
2023-03-03T12:15:44.939Z,97208.53
2023-03-03T12:19:58.173Z,97199.41
2023-03-03T12:24:34.186Z,97192.75
2023-03-03T12:28:48.094Z,97186.75
2023-03-03T12:33:09.305Z,97174.28
2023-03-03T12:37:32.836Z,97183.03
2023-03-03T12:41:46.717Z,97180.06
2023-03-03T12:46:03.144Z,97180.72
2023-03-03T12:50:39.668Z,97174.75
2023-03-03T12:55:11.467Z,97169.50
2023-03-03T12:59:28.205Z,97172.50
2023-03-03T13:03:55.269Z,97171.03
2023-03-03T13:08:21.193Z,97172.16
2023-03-03T13:12:35.541Z,97168.09
2023-03-03T13:16:47.492Z,97167.75
2023-03-03T13:21:08.066Z,97172.41
2023-03-03T13:25:27.945Z,97158.94
2023-03-03T13:29:33.394Z,97158.28
2023-03-03T13:33:40.467Z,97158.84
2023-03-03T13:37:47.808Z,97154.50
2023-03-03T13:41:59.714Z,97144.94
2023-03-03T13:46:13.856Z,97152.47
2023-03-03T13:50:27.887Z,97149.09
2023-03-03T13:55:06.218Z,97146.41
2023-03-03T13:59:24.405Z,97145.69
2023-03-03T14:03:50.377Z,97140.44
2023-03-03T14:08:01.066Z,97138.66
2023-03-03T14:12:15.282Z,97129.88
2023-03-03T14:16:33.332Z,97134.38
2023-03-03T14:20:46.700Z,97122.38
2023-03-03T14:25:17.404Z,97127.56
2023-03-03T14:29:32.537Z,97125.63
2023-03-03T14:33:35.282Z,97110.50
2023-03-03T14:37:47.758Z,97117.19
2023-03-03T14:41:52.804Z,97112.28
2023-03-03T14:45:53.938Z,97112.59
2023-03-03T14:50:03.763Z,97101.66
2023-03-03T14:54:04.694Z,97104.06
2023-03-03T14:58:27.962Z,97104.75
2023-03-03T15:02:46.354Z,97103.59
2023-03-03T15:06:50.395Z,97099.50
2023-03-03T15:10:52.547Z,97092.63
2023-03-03T15:15:05.846Z,97090.00
2023-03-03T15:19:47.505Z,97096.66
2023-03-03T15:24:05.046Z,97098.91
2023-03-03T15:28:25.482Z,97094.97
2023-03-03T15:32:37.077Z,97101.56
2023-03-03T15:36:48.312Z,97104.25
2023-03-03T15:40:57.682Z,97103.28
2023-03-03T15:45:10.836Z,97102.72
2023-03-03T15:49:38.448Z,97110.00
2023-03-03T15:54:11.599Z,97113.59
2023-03-03T15:58:48.122Z,97107.09
2023-03-03T16:02:58.940Z,97109.56
2023-03-03T16:07:12.280Z,97115.22
2023-03-03T16:11:24.301Z,97123.84
2023-03-03T16:15:44.717Z,97127.88
2023-03-03T16:19:56.490Z,97134.59
2023-03-03T16:24:10.228Z,97130.28
2023-03-03T16:28:19.932Z,97137.50
2023-03-03T16:32:36.543Z,97148.91
2023-03-03T16:36:56.222Z,97151.22
2023-03-03T16:41:03.792Z,97160.88
2023-03-03T16:45:22.955Z,97165.94
2023-03-03T16:49:35.712Z,97169.34
2023-03-03T16:54:09.587Z,97182.69
2023-03-03T16:58:33.165Z,97192.09
2023-03-03T17:03:13.841Z,97210.00
2023-03-03T17:07:33.448Z,97213.31
2023-03-03T17:11:58.197Z,97221.06
2023-03-03T17:16:16.317Z,97225.25
2023-03-03T17:20:33.952Z,97205.47
2023-03-03T17:24:48.497Z,97242.44
2023-03-03T17:29:12.634Z,97240.81
2023-03-03T17:33:49.930Z,97246.06
2023-03-03T17:38:02.053Z,97258.59
2023-03-03T17:42:19.140Z,97255.72
2023-03-03T17:46:28.917Z,97262.53
2023-03-03T17:51:14.269Z,97267.38
2023-03-03T17:55:42.867Z,97278.88
2023-03-03T18:00:06.577Z,97274.69
2023-03-03T18:04:42.649Z,97272.84
2023-03-03T18:09:13.799Z,97279.16
2023-03-03T18:13:37.044Z,97291.22
2023-03-03T18:18:06.186Z,97289.16
2023-03-03T18:22:14.545Z,97280.97
2023-03-03T18:26:41.888Z,97287.41
2023-03-03T18:31:01.113Z,97288.91
2023-03-03T18:35:28.098Z,97278.69
2023-03-03T18:39:46.517Z,97286.31
2023-03-03T18:44:04.691Z,97265.09
2023-03-03T18:48:14.899Z,97280.91
2023-03-03T18:52:24.936Z,97285.00
2023-03-03T18:56:48.447Z,97290.88
2023-03-03T19:00:55.985Z,97291.19
2023-03-03T19:05:07.739Z,97291.91
2023-03-03T19:09:10.527Z,97294.25
2023-03-03T19:13:57.321Z,97300.06
2023-03-03T19:18:03.383Z,97303.25
2023-03-03T19:22:27.419Z,97301.22
2023-03-03T19:27:07.406Z,97286.47
2023-03-03T19:31:19.013Z,97305.66
2023-03-03T19:35:36.205Z,97279.44
2023-03-03T19:39:52.420Z,97314.34
2023-03-03T19:44:15.852Z,97322.47
2023-03-03T19:48:28.879Z,97313.47
2023-03-03T19:52:43.076Z,97317.34
2023-03-03T19:56:51.570Z,97317.50
2023-03-03T20:01:01.789Z,97317.28
2023-03-03T20:05:23.340Z,97319.50
2023-03-03T20:09:39.114Z,97328.84
2023-03-03T20:13:57.346Z,97330.91
2023-03-03T20:18:46.837Z,97335.28
2023-03-03T20:22:59.809Z,97343.50
2023-03-03T20:27:09.717Z,97345.25
2023-03-03T20:31:22.500Z,97355.41
2023-03-03T20:35:40.193Z,97360.69
2023-03-03T20:40:01.365Z,97357.13
2023-03-03T20:44:20.469Z,97364.00
2023-03-03T20:48:51.358Z,97368.91
2023-03-03T20:53:09.519Z,97375.75
2023-03-03T20:57:21.431Z,97334.59
2023-03-03T21:01:39.320Z,97367.91
2023-03-03T21:06:01.239Z,97371.53
2023-03-03T21:10:16.700Z,97366.00
2023-03-03T21:14:24.187Z,97374.97
2023-03-03T21:18:29.878Z,97379.91
2023-03-03T21:22:30.519Z,97371.25
2023-03-03T21:26:57.301Z,97366.19
2023-03-03T21:31:17.755Z,97363.06
2023-03-03T21:35:24.816Z,97361.44
2023-03-03T21:39:32.613Z,97356.88
2023-03-03T21:43:37.429Z,97358.53
2023-03-03T21:47:39.436Z,97356.72
2023-03-03T21:51:42.654Z,97357.84
2023-03-03T21:55:48.873Z,97356.22
2023-03-03T21:59:49.583Z,97354.22
2023-03-03T22:03:50.795Z,97352.94
2023-03-03T22:07:54.161Z,97349.66
2023-03-03T22:11:54.906Z,97361.41
2023-03-03T22:15:56.565Z,97351.75
2023-03-03T22:19:56.934Z,97349.31
2023-03-03T22:24:00.861Z,97350.59
2023-03-03T22:28:02.158Z,97353.19
2023-03-03T22:32:03.059Z,97345.03
2023-03-03T22:36:04.090Z,97346.97
2023-03-03T22:40:08.468Z,97346.63
2023-03-03T22:44:09.826Z,97347.94
2023-03-03T22:48:10.750Z,97350.53
2023-03-03T22:52:12.182Z,97349.84
2023-03-03T22:56:15.127Z,97349.19
2023-03-03T23:00:19.384Z,97355.06
2023-03-03T23:04:20.078Z,97346.91
2023-03-03T23:08:21.854Z,97342.34
2023-03-03T23:12:25.176Z,97340.03
2023-03-03T23:16:25.628Z,97333.13
2023-03-03T23:20:30.840Z,97330.53
2023-03-03T23:24:33.223Z,97328.09
2023-03-03T23:28:36.646Z,97333.47
2023-03-03T23:32:38.202Z,97334.41
2023-03-03T23:36:38.771Z,97338.59
2023-03-03T23:40:39.129Z,97336.13
2023-03-03T23:44:43.557Z,97340.84
2023-03-03T23:48:44.317Z,97342.69
2023-03-03T23:52:44.871Z,97343.47
2023-03-03T23:56:45.355Z,97341.34
